createdAt,value
2023-04-22T09:02:40.499Z,976.20
2023-04-22T09:03:41.667Z,976.23
2023-04-22T09:04:41.185Z,976.17
2023-04-22T09:05:41.209Z,976.18
2023-04-22T09:06:41.196Z,976.11
2023-04-22T09:07:41.505Z,976.17
2023-04-22T09:08:41.161Z,976.10
2023-04-22T09:09:41.338Z,976.06
2023-04-22T09:10:41.157Z,976.05
2023-04-22T09:11:41.139Z,976.10
2023-04-22T09:12:41.224Z,976.07
2023-04-22T09:13:41.137Z,976.07
2023-04-22T09:14:41.100Z,976.08
2023-04-22T09:15:41.070Z,976.00
2023-04-22T09:16:41.082Z,976.04
2023-04-22T09:17:41.083Z,976.04
2023-04-22T09:18:41.039Z,976.02
2023-04-22T09:19:41.399Z,976.03
2023-04-22T09:20:40.993Z,976.05
2023-04-22T09:21:41.076Z,976.01
2023-04-22T09:22:41.201Z,976.08
2023-04-22T09:23:41.047Z,976.03
2023-04-22T09:24:40.958Z,976.07
2023-04-22T09:25:41.121Z,976.04
2023-04-22T09:26:41.205Z,976.02
2023-04-22T09:27:41.086Z,976.00
2023-04-22T09:28:40.880Z,976.02
2023-04-22T09:29:41.469Z,975.99
2023-04-22T09:30:40.901Z,976.04
2023-04-22T09:31:41.037Z,976.07
2023-04-22T09:32:40.961Z,976.03
2023-04-22T09:33:40.857Z,976.02
2023-04-22T09:34:40.925Z,976.03
2023-04-22T09:35:40.828Z,975.94
2023-04-22T09:36:40.924Z,975.92
2023-04-22T09:37:49.286Z,975.93
2023-04-22T09:38:40.797Z,975.97
2023-04-22T09:39:41.075Z,975.92
2023-04-22T09:40:40.843Z,975.96
2023-04-22T09:41:40.723Z,975.94
2023-04-22T09:42:40.708Z,975.87
2023-04-22T09:43:40.812Z,975.93
2023-04-22T09:44:40.673Z,975.91
2023-04-22T09:45:40.678Z,975.92
2023-04-22T09:46:40.661Z,975.93
2023-04-22T09:47:40.804Z,975.99
2023-04-22T09:48:40.682Z,975.96
2023-04-22T09:49:40.958Z,975.93
2023-04-22T09:50:40.594Z,975.95
2023-04-22T09:51:40.605Z,975.96
2023-04-22T09:52:40.555Z,975.95
2023-04-22T09:53:40.534Z,975.91
2023-04-22T09:54:40.617Z,975.92
2023-04-22T09:55:40.554Z,975.87
2023-04-22T09:56:40.526Z,975.92
2023-04-22T09:57:40.520Z,975.93
2023-04-22T09:58:40.568Z,975.91
2023-04-22T09:59:41.132Z,975.86
2023-04-22T10:00:40.643Z,975.84
2023-04-22T10:01:40.586Z,975.85
2023-04-22T10:02:40.657Z,975.79
2023-04-22T10:03:40.784Z,975.77
2023-04-22T10:04:40.407Z,975.77
2023-04-22T10:05:40.433Z,975.76
2023-04-22T10:06:40.446Z,975.78
2023-04-22T10:07:40.435Z,975.78
2023-04-22T10:08:40.559Z,975.76
2023-04-22T10:09:40.720Z,975.74
2023-04-22T10:10:40.557Z,975.69
2023-04-22T10:11:40.512Z,975.70
2023-04-22T10:12:40.277Z,975.69
2023-04-22T10:13:40.410Z,975.69
2023-04-22T10:14:40.592Z,975.65
2023-04-22T10:15:40.294Z,975.65
2023-04-22T10:16:40.340Z,975.61
2023-04-22T10:17:40.535Z,975.69
2023-04-22T10:18:40.245Z,975.62
2023-04-22T10:19:40.682Z,975.64
2023-04-22T10:20:40.198Z,975.58
2023-04-22T10:21:40.405Z,975.61
2023-04-22T10:22:40.152Z,975.67
2023-04-22T10:23:40.244Z,975.62
2023-04-22T10:24:40.248Z,975.59
2023-04-22T10:25:40.123Z,975.60
2023-04-22T10:26:40.277Z,975.56
2023-04-22T10:27:40.118Z,975.61
2023-04-22T10:28:40.106Z,975.59
2023-04-22T10:29:40.487Z,975.64
2023-04-22T10:30:40.062Z,975.58
2023-04-22T10:31:40.070Z,975.58
2023-04-22T10:32:40.086Z,975.54
2023-04-22T10:33:40.145Z,975.52
2023-04-22T10:34:40.313Z,975.51
2023-04-22T10:35:40.263Z,975.59
2023-04-22T10:36:40.004Z,975.50
2023-04-22T10:37:39.975Z,975.53
2023-04-22T10:38:39.945Z,975.51
2023-04-22T10:39:40.215Z,975.55
2023-04-22T10:40:39.946Z,975.51
2023-04-22T10:41:39.930Z,975.51
2023-04-22T10:42:39.912Z,975.49
2023-04-22T10:43:40.106Z,975.50
2023-04-22T10:44:39.914Z,975.46
2023-04-22T10:45:39.939Z,975.48
2023-04-22T10:46:40.177Z,975.47
2023-04-22T10:47:40.200Z,975.49
2023-04-22T10:48:39.943Z,975.44
2023-04-22T10:49:40.129Z,975.39
2023-04-22T10:50:39.969Z,975.38
2023-04-22T10:51:39.783Z,975.37
2023-04-22T10:52:39.782Z,975.37
2023-04-22T10:53:39.771Z,975.38
2023-04-22T10:54:39.948Z,975.44
2023-04-22T10:55:39.846Z,975.36
2023-04-22T10:56:45.592Z,975.42
2023-04-22T10:57:39.760Z,975.44
2023-04-22T10:58:39.916Z,975.42
2023-04-22T10:59:39.921Z,975.42
2023-04-22T11:00:52.252Z,975.40
2023-04-22T11:01:39.762Z,975.36
2023-04-22T11:02:39.722Z,975.36
2023-04-22T11:03:39.910Z,975.33
2023-04-22T11:04:39.624Z,975.30
2023-04-22T11:05:39.756Z,975.35
2023-04-22T11:06:39.786Z,975.30
2023-04-22T11:07:39.800Z,975.32
2023-04-22T11:08:39.596Z,975.29
2023-04-22T11:09:39.794Z,975.27
2023-04-22T11:10:41.463Z,975.32
2023-04-22T11:11:39.759Z,975.33
2023-04-22T11:12:39.711Z,975.33
2023-04-22T11:13:39.779Z,975.26
2023-04-22T11:14:39.596Z,975.30
2023-04-22T11:15:39.536Z,975.29
2023-04-22T11:16:39.508Z,975.34
2023-04-22T11:17:39.471Z,975.33
2023-04-22T11:18:39.534Z,975.34
2023-04-22T11:19:39.676Z,975.33
2023-04-22T11:20:39.634Z,975.32
2023-04-22T11:21:39.449Z,975.33
2023-04-22T11:22:39.598Z,975.35
2023-04-22T11:23:39.393Z,975.34
2023-04-22T11:24:39.699Z,975.36
2023-04-22T11:25:39.482Z,975.35
2023-04-22T11:26:39.350Z,975.35
2023-04-22T11:27:39.322Z,975.30
2023-04-22T11:28:39.315Z,975.31
2023-04-22T11:29:39.531Z,975.31
2023-04-22T11:30:39.375Z,975.33
2023-04-22T11:31:39.511Z,975.27
2023-04-22T11:32:39.440Z,975.25
2023-04-22T11:33:39.236Z,975.26
2023-04-22T11:34:39.275Z,975.21
2023-04-22T11:35:39.452Z,975.25
2023-04-22T11:36:39.459Z,975.20
2023-04-22T11:37:39.191Z,975.27
2023-04-22T11:38:39.321Z,975.28
2023-04-22T11:39:50.232Z,975.25
2023-04-22T11:40:41.313Z,975.23
2023-04-22T11:41:39.142Z,975.20
2023-04-22T11:42:39.460Z,975.22
2023-04-22T11:43:39.142Z,975.29
2023-04-22T11:44:39.315Z,975.23
2023-04-22T11:45:39.234Z,975.26
2023-04-22T11:46:39.456Z,975.20
2023-04-22T11:47:39.092Z,975.23
2023-04-22T11:48:39.375Z,975.14
2023-04-22T11:49:39.376Z,975.29
2023-04-22T11:50:39.013Z,975.26
2023-04-22T11:51:39.137Z,975.24
2023-04-22T11:52:38.998Z,975.22
2023-04-22T11:53:39.079Z,975.16
2023-04-22T11:54:39.010Z,975.14
2023-04-22T11:55:38.909Z,975.12
2023-04-22T11:56:39.008Z,975.16
2023-04-22T11:57:38.905Z,975.18
2023-04-22T11:58:38.926Z,975.24
2023-04-22T11:59:39.109Z,975.21
2023-04-22T12:00:39.023Z,975.18
2023-04-22T12:01:38.863Z,975.13
2023-04-22T12:02:38.910Z,975.08
2023-04-22T12:03:39.032Z,975.16
2023-04-22T12:04:38.850Z,975.15
2023-04-22T12:05:38.862Z,975.09
2023-04-22T12:06:38.759Z,975.19
2023-04-22T12:07:38.767Z,975.18
2023-04-22T12:08:39.077Z,975.09
2023-04-22T12:09:38.993Z,975.05
2023-04-22T12:10:39.068Z,975.15
2023-04-22T12:11:38.795Z,975.13
2023-04-22T12:12:39.003Z,975.12
2023-04-22T12:13:38.799Z,975.05
2023-04-22T12:14:38.670Z,975.04
2023-04-22T12:15:38.672Z,975.03
2023-04-22T12:16:38.718Z,975.02
2023-04-22T12:17:38.657Z,975.03
2023-04-22T12:18:38.676Z,975.05
2023-04-22T12:19:39.056Z,975.01
2023-04-22T12:20:38.670Z,974.97
2023-04-22T12:21:38.593Z,975.03
2023-04-22T12:22:38.718Z,975.02
2023-04-22T12:23:38.568Z,975.00
2023-04-22T12:24:38.668Z,975.03
2023-04-22T12:25:38.572Z,974.98
2023-04-22T12:26:38.650Z,974.99
2023-04-22T12:27:38.523Z,974.99
2023-04-22T12:28:38.731Z,974.98
2023-04-22T12:29:38.681Z,974.91
2023-04-22T12:30:38.481Z,974.95
2023-04-22T12:31:38.534Z,974.96
2023-04-22T12:32:38.431Z,974.95
2023-04-22T12:33:38.604Z,974.98
2023-04-22T12:34:38.723Z,974.96
2023-04-22T12:35:38.525Z,974.94
2023-04-22T12:36:38.368Z,974.93
2023-04-22T12:37:38.344Z,974.91
2023-04-22T12:38:38.320Z,974.93
2023-04-22T12:39:38.622Z,974.87
2023-04-22T12:40:38.347Z,974.90
2023-04-22T12:41:38.486Z,974.90
2023-04-22T12:42:38.355Z,974.87
2023-04-22T12:43:38.477Z,974.84
2023-04-22T12:44:38.326Z,974.89
2023-04-22T12:45:38.597Z,974.85
2023-04-22T12:46:38.386Z,974.90
2023-04-22T12:47:38.566Z,974.81
2023-04-22T12:48:38.349Z,974.90
2023-04-22T12:49:38.529Z,974.92
2023-04-22T12:50:38.344Z,974.87
2023-04-22T12:51:38.279Z,974.92
2023-04-22T12:52:38.366Z,974.89
2023-04-22T12:53:38.211Z,974.91
2023-04-22T12:54:38.161Z,974.93
2023-04-22T12:55:38.218Z,974.92
2023-04-22T12:56:38.126Z,974.92
2023-04-22T12:57:38.185Z,974.90
2023-04-22T12:58:38.343Z,974.85
2023-04-22T12:59:38.423Z,974.80
2023-04-22T13:00:38.352Z,974.77
2023-04-22T13:01:38.064Z,974.77
2023-04-22T13:02:38.286Z,974.75
2023-04-22T13:03:38.383Z,974.75
2023-04-22T13:04:38.164Z,974.78
2023-04-22T13:05:38.188Z,974.74
2023-04-22T13:06:37.999Z,974.70
2023-04-22T13:07:37.971Z,974.75
2023-04-22T13:08:38.024Z,974.73
2023-04-22T13:09:38.270Z,974.70
2023-04-22T13:10:38.033Z,974.71
2023-04-22T13:11:38.199Z,974.68
2023-04-22T13:12:38.638Z,974.66
2023-04-22T13:13:37.885Z,974.67
2023-04-22T13:14:38.102Z,974.61
2023-04-22T13:15:37.863Z,974.60
2023-04-22T13:16:38.042Z,974.60
2023-04-22T13:17:37.850Z,974.57
2023-04-22T13:18:37.826Z,974.59
2023-04-22T13:19:37.987Z,974.55
2023-04-22T13:20:38.076Z,974.54
2023-04-22T13:21:37.812Z,974.60
2023-04-22T13:22:37.855Z,974.57
2023-04-22T13:23:37.844Z,974.55
2023-04-22T13:24:37.718Z,974.56
2023-04-22T13:25:37.840Z,974.50
2023-04-22T13:26:37.811Z,974.50
2023-04-22T13:27:37.693Z,974.47
2023-04-22T13:28:37.681Z,974.48
2023-04-22T13:29:37.806Z,974.47
2023-04-22T13:30:37.684Z,974.39
2023-04-22T13:31:37.753Z,974.45
2023-04-22T13:32:37.697Z,974.48
2023-04-22T13:33:37.574Z,974.47
2023-04-22T13:34:37.608Z,974.43
2023-04-22T13:35:37.537Z,974.37
2023-04-22T13:36:37.556Z,974.43
2023-04-22T13:37:37.629Z,974.37
2023-04-22T13:38:37.677Z,974.36
2023-04-22T13:39:37.606Z,974.39
2023-04-22T13:40:37.509Z,974.39
2023-04-22T13:41:37.546Z,974.40
2023-04-22T13:42:37.861Z,974.36
2023-04-22T13:43:37.535Z,974.37
2023-04-22T13:44:37.447Z,974.35
2023-04-22T13:45:37.643Z,974.34
2023-04-22T13:46:37.398Z,974.32
2023-04-22T13:47:37.711Z,974.33
2023-04-22T13:48:37.738Z,974.28
2023-04-22T13:49:37.796Z,974.29
2023-04-22T13:50:37.358Z,974.26
2023-04-22T13:51:37.366Z,974.27
2023-04-22T13:52:37.372Z,974.26
2023-04-22T13:53:37.412Z,974.24
2023-04-22T13:54:37.373Z,974.25
2023-04-22T13:55:37.532Z,974.24
2023-04-22T13:56:37.383Z,974.25
2023-04-22T13:57:37.293Z,974.28
2023-04-22T13:58:37.370Z,974.22
2023-04-22T13:59:37.686Z,974.21
2023-04-22T14:00:37.380Z,974.25
2023-04-22T14:01:37.267Z,974.24
2023-04-22T14:02:37.390Z,974.24
2023-04-22T14:03:37.280Z,974.24
2023-04-22T14:04:37.359Z,974.22
2023-04-22T14:05:37.290Z,974.25
2023-04-22T14:06:37.388Z,974.29
2023-04-22T14:07:37.201Z,974.21
2023-04-22T14:08:37.166Z,974.22
2023-04-22T14:09:37.242Z,974.24
2023-04-22T14:10:37.487Z,974.23
2023-04-22T14:11:37.125Z,974.22
2023-04-22T14:12:37.065Z,974.20
2023-04-22T14:13:37.063Z,974.22
2023-04-22T14:14:37.045Z,974.17
2023-04-22T14:15:37.014Z,974.18
2023-04-22T14:16:37.184Z,974.20
2023-04-22T14:17:37.232Z,974.17
2023-04-22T14:18:37.064Z,974.21
2023-04-22T14:19:37.205Z,974.14
2023-04-22T14:20:37.038Z,974.20
2023-04-22T14:21:37.284Z,974.14
2023-04-22T14:22:37.222Z,974.11
2023-04-22T14:23:36.978Z,974.16
2023-04-22T14:24:36.908Z,974.12
2023-04-22T14:25:36.928Z,974.21
2023-04-22T14:26:36.915Z,974.19
2023-04-22T14:27:36.913Z,974.11
2023-04-22T14:28:37.047Z,974.16
2023-04-22T14:29:36.927Z,974.14
2023-04-22T14:30:37.063Z,974.19
2023-04-22T14:31:36.869Z,974.12
2023-04-22T14:32:36.878Z,974.10
2023-04-22T14:33:36.899Z,974.08
2023-04-22T14:34:36.779Z,974.10
2023-04-22T14:35:36.887Z,974.10
2023-04-22T14:36:36.908Z,974.06
2023-04-22T14:37:36.762Z,974.08
2023-04-22T14:38:36.814Z,974.04
2023-04-22T14:39:36.695Z,974.03
2023-04-22T14:40:36.744Z,974.07
2023-04-22T14:41:36.936Z,974.04
2023-04-22T14:42:36.688Z,974.08
2023-04-22T14:43:36.916Z,974.00
2023-04-22T14:44:36.820Z,974.01
2023-04-22T14:45:36.640Z,974.01
2023-04-22T14:46:36.744Z,974.00
2023-04-22T14:47:36.723Z,973.96
2023-04-22T14:48:36.578Z,974.01
2023-04-22T14:49:36.737Z,974.02
2023-04-22T14:50:36.580Z,973.92
2023-04-22T14:51:36.795Z,973.96
2023-04-22T14:52:36.591Z,973.95
2023-04-22T14:53:36.574Z,973.96
2023-04-22T14:54:36.473Z,973.91
2023-04-22T14:55:36.682Z,973.97
2023-04-22T14:56:36.570Z,973.94
2023-04-22T14:57:36.566Z,973.91
2023-04-22T14:58:36.422Z,973.85
2023-04-22T14:59:36.556Z,973.95
2023-04-22T15:00:36.437Z,973.90
2023-04-22T15:01:36.507Z,973.92
2023-04-22T15:02:36.476Z,973.92
2023-04-22T15:03:36.548Z,973.89
2023-04-22T15:04:36.419Z,973.86
2023-04-22T15:05:36.360Z,973.85
2023-04-22T15:06:36.583Z,973.90
2023-04-22T15:07:36.421Z,973.88
2023-04-22T15:08:36.308Z,973.82
2023-04-22T15:09:36.300Z,973.91
2023-04-22T15:10:36.406Z,973.89
2023-04-22T15:11:36.259Z,973.88
2023-04-22T15:12:36.401Z,973.83
2023-04-22T15:13:36.342Z,973.87
2023-04-22T15:14:36.256Z,973.86
2023-04-22T15:15:36.259Z,973.85
2023-04-22T15:16:36.256Z,973.84
2023-04-22T15:17:36.309Z,973.83
2023-04-22T15:18:36.468Z,973.85
2023-04-22T15:19:36.224Z,973.84
2023-04-22T15:20:36.392Z,973.87
2023-04-22T15:21:36.150Z,973.81
2023-04-22T15:22:36.111Z,973.78
2023-04-22T15:23:36.241Z,973.77
2023-04-22T15:24:36.184Z,973.85
2023-04-22T15:25:36.247Z,973.79
2023-04-22T15:26:36.103Z,973.80
2023-04-22T15:27:36.255Z,973.83
2023-04-22T15:28:36.073Z,973.81
2023-04-22T15:29:36.027Z,973.87
2023-04-22T15:30:36.178Z,973.85
2023-04-22T15:31:36.255Z,973.81
2023-04-22T15:32:36.102Z,973.79
2023-04-22T15:33:36.261Z,973.82
2023-04-22T15:34:36.080Z,973.81
2023-04-22T15:35:36.262Z,973.79
2023-04-22T15:36:36.041Z,973.78
2023-04-22T15:37:35.945Z,973.81
2023-04-22T15:38:36.100Z,973.78
2023-04-22T15:39:35.950Z,973.76
2023-04-22T15:40:35.888Z,973.77
2023-04-22T15:41:35.940Z,973.74
2023-04-22T15:42:36.188Z,973.73
2023-04-22T15:43:35.923Z,973.70
2023-04-22T15:44:35.847Z,973.73
2023-04-22T15:45:35.938Z,973.69
2023-04-22T15:46:36.133Z,973.77
2023-04-22T15:47:35.818Z,973.76
2023-04-22T15:48:35.843Z,973.77
2023-04-22T15:49:35.768Z,973.76
2023-04-22T15:50:36.493Z,973.74
2023-04-22T15:51:35.758Z,973.81
2023-04-22T15:52:35.761Z,973.79
2023-04-22T15:53:35.996Z,973.74
2023-04-22T15:54:35.763Z,973.78
2023-04-22T15:55:35.673Z,973.77
2023-04-22T15:56:35.938Z,973.74
2023-04-22T15:57:35.949Z,973.75
2023-04-22T15:58:35.799Z,973.78
2023-04-22T15:59:35.729Z,973.76
2023-04-22T16:00:35.628Z,973.78
2023-04-22T16:01:35.672Z,973.76
2023-04-22T16:02:35.803Z,973.73
2023-04-22T16:03:35.815Z,973.73
2023-04-22T16:04:35.605Z,973.73
2023-04-22T16:05:35.681Z,973.67
2023-04-22T16:06:35.758Z,973.74
2023-04-22T16:07:35.682Z,973.71
2023-04-22T16:08:35.570Z,973.72
2023-04-22T16:09:35.588Z,973.72
2023-04-22T16:10:35.503Z,973.67
2023-04-22T16:11:35.706Z,973.66
2023-04-22T16:12:35.518Z,973.64
2023-04-22T16:13:35.422Z,973.65
2023-04-22T16:14:35.506Z,973.64
2023-04-22T16:15:35.838Z,973.65
2023-04-22T16:16:35.518Z,973.64
2023-04-22T16:17:35.504Z,973.70
2023-04-22T16:18:35.389Z,973.67
2023-04-22T16:19:35.646Z,973.67
2023-04-22T16:20:35.442Z,973.64
2023-04-22T16:21:35.678Z,973.64
2023-04-22T16:22:35.447Z,973.64
2023-04-22T16:23:35.462Z,973.61
2023-04-22T16:24:35.442Z,973.61
2023-04-22T16:25:35.247Z,973.62
2023-04-22T16:26:35.440Z,973.53
2023-04-22T16:27:35.264Z,973.62
2023-04-22T16:28:35.224Z,973.59
2023-04-22T16:29:35.459Z,973.54
2023-04-22T16:30:35.462Z,973.56
2023-04-22T16:31:35.199Z,973.62
2023-04-22T16:32:35.359Z,973.57
2023-04-22T16:33:35.318Z,973.56
2023-04-22T16:34:35.164Z,973.55
2023-04-22T16:35:35.368Z,973.56
2023-04-22T16:36:35.108Z,973.50
2023-04-22T16:37:35.183Z,973.45
2023-04-22T16:38:35.115Z,973.48
2023-04-22T16:39:35.138Z,973.49
2023-04-22T16:40:35.057Z,973.46
2023-04-22T16:41:35.122Z,973.46
2023-04-22T16:42:35.038Z,973.47
2023-04-22T16:43:35.042Z,973.44
2023-04-22T16:44:35.018Z,973.45
2023-04-22T16:45:35.204Z,973.45
2023-04-22T16:46:35.087Z,973.44
2023-04-22T16:47:35.069Z,973.40
2023-04-22T16:48:34.952Z,973.39
2023-04-22T16:49:34.957Z,973.40
2023-04-22T16:50:34.928Z,973.38
2023-04-22T16:51:34.897Z,973.34
2023-04-22T16:52:35.246Z,973.45
2023-04-22T16:53:34.945Z,973.41
2023-04-22T16:54:35.298Z,973.41
2023-04-22T16:55:36.881Z,973.43
2023-04-22T16:56:34.901Z,973.39
2023-04-22T16:57:34.861Z,973.38
2023-04-22T16:58:34.877Z,973.38
2023-04-22T16:59:34.830Z,973.33
2023-04-22T17:00:34.795Z,973.33
2023-04-22T17:01:34.803Z,973.34
2023-04-22T17:02:34.941Z,973.32
2023-04-22T17:03:34.901Z,973.36
2023-04-22T17:04:34.918Z,973.24
2023-04-22T17:05:34.950Z,973.29
2023-04-22T17:06:34.806Z,973.28
2023-04-22T17:07:34.719Z,973.30
2023-04-22T17:08:34.788Z,973.24
2023-04-22T17:09:34.667Z,973.25
2023-04-22T17:10:34.705Z,973.25
2023-04-22T17:11:34.666Z,973.23
2023-04-22T17:12:34.825Z,973.26
2023-04-22T17:13:34.644Z,973.23
2023-04-22T17:14:34.804Z,973.24
2023-04-22T17:15:34.801Z,973.22
2023-04-22T17:16:34.581Z,973.21
2023-04-22T17:17:34.664Z,973.22
2023-04-22T17:18:34.565Z,973.16
2023-04-22T17:19:34.676Z,973.20
2023-04-22T17:20:34.539Z,973.21
2023-04-22T17:21:34.743Z,973.19
2023-04-22T17:22:34.823Z,973.20
2023-04-22T17:23:34.648Z,973.23
2023-04-22T17:24:34.499Z,973.23
2023-04-22T17:25:34.469Z,973.16
2023-04-22T17:26:34.512Z,973.11
2023-04-22T17:27:34.525Z,973.17
2023-04-22T17:28:34.481Z,973.18
2023-04-22T17:29:34.484Z,973.19
2023-04-22T17:30:34.475Z,973.16
2023-04-22T17:31:34.716Z,973.21
2023-04-22T17:32:34.511Z,973.19
2023-04-22T17:33:34.406Z,973.20
2023-04-22T17:34:34.477Z,973.17
2023-04-22T17:35:34.334Z,973.19
2023-04-22T17:36:34.489Z,973.21
2023-04-22T17:37:34.329Z,973.15
2023-04-22T17:38:34.512Z,973.21
2023-04-22T17:39:34.419Z,973.19
2023-04-22T17:40:34.248Z,973.14
2023-04-22T17:41:34.374Z,973.21
2023-04-22T17:42:44.630Z,973.20
2023-04-22T17:43:34.353Z,973.16
2023-04-22T17:44:34.256Z,973.16
2023-04-22T17:45:34.276Z,973.13
2023-04-22T17:46:34.209Z,973.20
2023-04-22T17:47:34.390Z,973.22
2023-04-22T17:48:34.167Z,973.21
2023-04-22T17:49:34.135Z,973.19
2023-04-22T17:50:34.210Z,973.13
2023-04-22T17:51:34.166Z,973.19
2023-04-22T17:52:34.191Z,973.25
2023-04-22T17:53:34.103Z,973.25
2023-04-22T17:54:34.211Z,973.25
2023-04-22T17:55:34.045Z,973.25
2023-04-22T17:56:34.150Z,973.24
2023-04-22T17:57:34.129Z,973.24
2023-04-22T17:58:34.210Z,973.24
2023-04-22T17:59:34.039Z,973.23
2023-04-22T18:00:34.022Z,973.15
2023-04-22T18:01:34.038Z,973.18
2023-04-22T18:02:34.343Z,973.20
2023-04-22T18:03:34.217Z,973.19
2023-04-22T18:04:34.027Z,973.20
2023-04-22T18:05:34.000Z,973.17
2023-04-22T18:06:33.936Z,973.20
2023-04-22T18:07:33.864Z,973.24
2023-04-22T18:08:33.914Z,973.23
2023-04-22T18:09:34.178Z,973.23
2023-04-22T18:10:34.027Z,973.18
2023-04-22T18:11:33.840Z,973.20
2023-04-22T18:12:33.880Z,973.29
2023-04-22T18:13:33.800Z,973.22
2023-04-22T18:14:34.029Z,973.28
2023-04-22T18:15:33.893Z,973.36
2023-04-22T18:16:33.856Z,973.34
2023-04-22T18:17:33.791Z,973.38
2023-04-22T18:18:33.882Z,973.36
2023-04-22T18:19:33.715Z,973.33
2023-04-22T18:20:33.908Z,973.35
2023-04-22T18:21:33.755Z,973.38
2023-04-22T18:22:33.709Z,973.40
2023-04-22T18:23:33.673Z,973.40
2023-04-22T18:24:33.697Z,973.37
2023-04-22T18:25:33.661Z,973.38
2023-04-22T18:26:34.019Z,973.43
2023-04-22T18:27:33.719Z,973.40
2023-04-22T18:28:33.601Z,973.41
2023-04-22T18:29:33.580Z,973.42
2023-04-22T18:30:33.593Z,973.45
2023-04-22T18:31:33.613Z,973.49
2023-04-22T18:32:33.623Z,973.46
2023-04-22T18:33:33.579Z,973.45
2023-04-22T18:34:33.755Z,973.45
2023-04-22T18:35:33.694Z,973.43
2023-04-22T18:36:33.514Z,973.41
2023-04-22T18:37:33.781Z,973.48
2023-04-22T18:38:33.512Z,973.46
2023-04-22T18:39:33.504Z,973.49
2023-04-22T18:40:33.432Z,973.46
2023-04-22T18:41:33.419Z,973.50
2023-04-22T18:42:33.535Z,973.50
2023-04-22T18:43:33.509Z,973.45
2023-04-22T18:44:33.518Z,973.46
2023-04-22T18:45:33.444Z,973.44
2023-04-22T18:46:33.377Z,973.42
2023-04-22T18:47:33.428Z,973.47
2023-04-22T18:48:33.708Z,973.54
2023-04-22T18:49:33.593Z,973.49
2023-04-22T18:50:33.507Z,973.50
2023-04-22T18:51:33.443Z,973.49
2023-04-22T18:52:33.381Z,973.45
2023-04-22T18:53:33.528Z,973.53
2023-04-22T18:54:33.383Z,973.55
2023-04-22T18:55:33.872Z,973.51
2023-04-22T18:56:33.226Z,973.51
2023-04-22T18:57:33.244Z,973.54
2023-04-22T18:58:33.159Z,973.51
2023-04-22T18:59:33.284Z,973.58
2023-04-22T19:00:33.226Z,973.57
2023-04-22T19:01:33.185Z,973.53
2023-04-22T19:02:34.591Z,973.57
2023-04-22T19:03:33.373Z,973.62
2023-04-22T19:04:33.324Z,973.60
2023-04-22T19:05:33.233Z,973.53
2023-04-22T19:06:33.059Z,973.58
2023-04-22T19:07:33.121Z,973.52
2023-04-22T19:08:33.071Z,973.52
2023-04-22T19:09:33.033Z,973.53
2023-04-22T19:10:33.169Z,973.50
2023-04-22T19:11:33.036Z,973.46
2023-04-22T19:12:32.980Z,973.52
2023-04-22T19:13:33.086Z,973.56
2023-04-22T19:14:33.060Z,973.53
2023-04-22T19:15:33.080Z,973.50
2023-04-22T19:16:33.029Z,973.53
2023-04-22T19:17:33.052Z,973.52
2023-04-22T19:18:33.206Z,973.54
2023-04-22T19:19:33.035Z,973.50
2023-04-22T19:20:33.076Z,973.52
2023-04-22T19:21:32.905Z,973.45
2023-04-22T19:22:33.174Z,973.51
2023-04-22T19:23:33.096Z,973.46
2023-04-22T19:24:32.877Z,973.49
2023-04-22T19:25:32.901Z,973.48
2023-04-22T19:26:32.810Z,973.47
2023-04-22T19:27:32.860Z,973.48
2023-04-22T19:28:33.052Z,973.40
2023-04-22T19:29:32.749Z,973.44
2023-04-22T19:30:32.916Z,973.45
2023-04-22T19:31:32.765Z,973.45
2023-04-22T19:32:32.946Z,973.53
2023-04-22T19:33:32.808Z,973.46
2023-04-22T19:34:32.953Z,973.48
2023-04-22T19:35:32.736Z,973.43
2023-04-22T19:36:32.938Z,973.43
2023-04-22T19:37:32.714Z,973.46
2023-04-22T19:38:32.867Z,973.44
2023-04-22T19:39:32.697Z,973.45
2023-04-22T19:40:32.639Z,973.43
2023-04-22T19:41:32.731Z,973.40
2023-04-22T19:42:32.596Z,973.41
2023-04-22T19:43:32.591Z,973.51
2023-04-22T19:44:32.559Z,973.49
2023-04-22T19:45:32.631Z,973.47
2023-04-22T19:46:32.522Z,973.42
2023-04-22T19:47:32.546Z,973.44
2023-04-22T19:48:32.518Z,973.47
2023-04-22T19:49:32.507Z,973.38
2023-04-22T19:50:32.469Z,973.37
2023-04-22T19:51:32.594Z,973.40
2023-04-22T19:52:32.417Z,973.38
2023-04-22T19:53:32.467Z,973.34
2023-04-22T19:54:32.438Z,973.35
2023-04-22T19:55:32.498Z,973.38
2023-04-22T19:56:32.418Z,973.39
2023-04-22T19:57:32.481Z,973.36
2023-04-22T19:58:32.604Z,973.40
2023-04-22T19:59:32.400Z,973.35
2023-04-22T20:00:32.555Z,973.38
2023-04-22T20:01:32.447Z,973.35
2023-04-22T20:02:32.616Z,973.38
2023-04-22T20:03:32.641Z,973.35
2023-04-22T20:04:32.449Z,973.33
2023-04-22T20:05:32.396Z,973.35
2023-04-22T20:06:32.268Z,973.36
2023-04-22T20:07:32.429Z,973.31
2023-04-22T20:08:32.418Z,973.37
2023-04-22T20:09:32.486Z,973.32
2023-04-22T20:10:32.235Z,973.38
2023-04-22T20:11:32.378Z,973.38
2023-04-22T20:12:32.252Z,973.34
2023-04-22T20:13:32.405Z,973.45
2023-04-22T20:14:32.232Z,973.34
2023-04-22T20:15:32.470Z,973.36
2023-04-22T20:16:32.197Z,973.39
2023-04-22T20:17:32.431Z,973.39
2023-04-22T20:18:32.430Z,973.35
2023-04-22T20:19:32.399Z,973.39
2023-04-22T20:20:32.328Z,973.41
2023-04-22T20:21:32.080Z,973.33
2023-04-22T20:22:32.102Z,973.34
2023-04-22T20:23:32.043Z,973.39
2023-04-22T20:24:32.229Z,973.39
2023-04-22T20:25:32.049Z,973.41
2023-04-22T20:26:32.050Z,973.40
2023-04-22T20:27:31.968Z,973.38
2023-04-22T20:28:32.052Z,973.37
2023-04-22T20:29:31.979Z,973.38
2023-04-22T20:30:31.957Z,973.36
2023-04-22T20:31:32.096Z,973.36
2023-04-22T20:32:31.996Z,973.37
2023-04-22T20:33:31.906Z,973.32
2023-04-22T20:34:31.913Z,973.36
2023-04-22T20:35:31.863Z,973.38
2023-04-22T20:36:31.917Z,973.35
2023-04-22T20:37:31.972Z,973.35
2023-04-22T20:38:31.874Z,973.38
2023-04-22T20:39:31.820Z,973.38
2023-04-22T20:40:31.831Z,973.39
2023-04-22T20:41:31.775Z,973.37
2023-04-22T20:42:31.912Z,973.33
2023-04-22T20:43:31.855Z,973.31
2023-04-22T20:44:31.891Z,973.34
2023-04-22T20:45:31.780Z,973.32
2023-04-22T20:46:31.803Z,973.36
2023-04-22T20:47:31.770Z,973.34
2023-04-22T20:48:31.777Z,973.32
2023-04-22T20:49:31.709Z,973.29
2023-04-22T20:50:31.696Z,973.32
2023-04-22T20:51:31.754Z,973.34
2023-04-22T20:52:31.688Z,973.30
2023-04-22T20:53:31.734Z,973.32
2023-04-22T20:54:31.692Z,973.33
2023-04-22T20:55:31.804Z,973.29
2023-04-22T20:56:31.622Z,973.31
2023-04-22T20:57:31.574Z,973.29
2023-04-22T20:58:31.621Z,973.30
2023-04-22T20:59:31.635Z,973.33
2023-04-22T21:00:31.582Z,973.33
2023-04-22T21:01:31.591Z,973.34
2023-04-22T21:02:31.676Z,973.30
2023-04-22T21:03:31.730Z,973.32
2023-04-22T21:04:31.650Z,973.37
2023-04-22T21:05:31.539Z,973.31
2023-04-22T21:06:31.627Z,973.34
2023-04-22T21:07:31.478Z,973.33
2023-04-22T21:08:31.429Z,973.41
2023-04-22T21:09:31.456Z,973.38
2023-04-22T21:10:31.587Z,973.40
2023-04-22T21:11:31.539Z,973.44
2023-04-22T21:12:31.375Z,973.45
2023-04-22T21:13:31.384Z,973.42
2023-04-22T21:14:31.596Z,973.43
2023-04-22T21:15:31.448Z,973.41
2023-04-22T21:16:31.322Z,973.44
2023-04-22T21:17:31.723Z,973.47
2023-04-22T21:18:31.285Z,973.47
2023-04-22T21:19:31.296Z,973.50
2023-04-22T21:20:31.291Z,973.48
2023-04-22T21:21:31.262Z,973.51
2023-04-22T21:22:31.355Z,973.49
2023-04-22T21:23:31.279Z,973.48
2023-04-22T21:24:31.217Z,973.47
2023-04-22T21:25:31.622Z,973.46
2023-04-22T21:26:31.271Z,973.46
2023-04-22T21:27:31.170Z,973.44
2023-04-22T21:28:31.208Z,973.47
2023-04-22T21:29:31.129Z,973.49
2023-04-22T21:30:31.136Z,973.53